Time;durP1;ratioP1;P1;durP2;ratioP2;P2;SDS_P1;SDS_P2;PMS_P1;PMS_P2;Temp;Humidity;BMP_temperature;BMP_pressure;BME280_temperature;BME280_humidity;BME280_pressure;Samples;Min_cycle;Max_cycle;Signal;HPM_P1;HPM_P2
2023/12/09 00:01:42;;;;;;;58.20;26.30;;;;;;;2.10;59.36;100736.46;105369;1290;601370;-90
2023/12/09 00:04:10;;;;;;;48.20;22.90;;;;;;;2.89;57.15;100737.01;107966;1262;60492;-89
2023/12/09 00:06:48;;;;;;;45.90;22.40;;;;;;;3.00;56.76;100742.24;107966;1263;59392;-87
2023/12/09 00:09:19;;;;;;;46.10;21.40;;;;;;;3.04;56.58;100741.58;108153;1262;70631;-88
2023/12/09 00:11:47;;;;;;;;;;;;;;;3.04;56.72;100739.84;108320;1261;68599;-87
2023/12/09 00:14:15;;;;;;;45.00;20.10;;;;;;;3.18;56.36;100735.20;108480;1255;217540;-87
2023/12/09 00:16:42;;;;;;;36.30;18.40;;;;;;;3.19;56.26;100736.23;108586;1255;60475;-89
2023/12/09 00:19:12;;;;;;;46.40;21.60;;;;;;;3.14;56.51;100741.08;108574;1255;58722;-88
2023/12/09 00:21:41;;;;;;;40.00;19.90;;;;;;;3.26;56.29;100737.30;108391;1256;70006;-88
2023/12/09 00:24:08;;;;;;;41.60;20.00;;;;;;;3.24;56.32;100736.25;108647;1256;69193;-88
2023/12/09 00:26:36;;;;;;;44.00;19.70;;;;;;;3.25;56.41;100736.60;108315;1256;71436;-87
2023/12/09 00:29:04;;;;;;;45.60;20.40;;;;;;;3.29;56.40;100731.05;108320;1256;60294;-88
2023/12/09 00:31:32;;;;;;;43.60;21.80;;;;;;;3.27;56.33;100732.45;108558;1259;59616;-88
2023/12/09 00:34:00;;;;;;;41.90;20.50;;;;;;;3.32;56.32;100732.10;108531;1252;71798;-88
2023/12/09 00:36:28;;;;;;;41.20;20.10;;;;;;;3.40;56.04;100734.21;108570;1253;69044;-88
2023/12/09 00:38:56;;;;;;;48.00;21.60;;;;;;;3.51;55.82;100736.66;108607;1253;71530;-88
2023/12/09 00:41:24;;;;;;;42.80;20.60;;;;;;;3.48;55.77;100738.05;108538;1253;60544;-88
2023/12/09 00:43:52;;;;;;;44.80;20.50;;;;;;;3.40;55.88;100740.11;108547;1253;61238;-89
2023/12/09 00:46:21;;;;;;;44.30;19.50;;;;;;;3.38;55.88;100743.39;108502;1253;72101;-90
2023/12/09 00:48:48;;;;;;;42.20;20.50;;;;;;;3.46;55.76;100749.67;108518;1253;68881;-89
2023/12/09 00:51:16;;;;;;;43.20;20.50;;;;;;;3.57;55.57;100752.64;108441;1253;75197;-89
2023/12/09 00:53:44;;;;;;;42.60;21.00;;;;;;;3.53;55.61;100754.88;108402;1253;59741;-88
2023/12/09 00:56:14;;;;;;;44.50;20.60;;;;;;;3.55;55.48;100755.41;108382;1253;59977;-89
2023/12/09 00:59:02;;;;;;;51.60;22.10;;;;;;;3.59;55.47;100757.85;108356;1253;70960;-88
2023/12/09 01:01:30;;;;;;;42.80;19.80;;;;;;;3.51;55.46;100758.70;108534;1253;69221;-89
2023/12/09 01:03:58;;;;;;;42.50;19.70;;;;;;;3.47;55.92;100751.75;108803;1253;71191;-87
2023/12/09 01:06:28;;;;;;;41.90;21.10;;;;;;;3.46;55.85;100749.84;108502;1253;61657;-87
2023/12/09 01:08:58;;;;;;;41.00;20.40;;;;;;;3.44;55.70;100746.72;108290;1253;59681;-90
2023/12/09 01:11:27;;;;;;;54.40;22.80;;;;;;;3.42;55.90;100741.85;108819;1258;71777;-88
2023/12/09 01:13:54;;;;;;;52.60;23.10;;;;;;;3.38;55.81;100740.80;109303;1253;67870;-88
2023/12/09 01:16:22;;;;;;;71.60;27.90;;;;;;;3.35;55.90;100736.63;109411;1253;71065;-88
2023/12/09 01:18:49;;;;;;;56.10;24.50;;;;;;;3.39;55.78;100737.85;109406;1253;60403;-87
2023/12/09 01:21:17;;;;;;;57.10;22.70;;;;;;;3.47;55.53;100736.48;109416;1258;59253;-87
2023/12/09 01:23:45;;;;;;;46.50;22.50;;;;;;;3.48;55.42;100736.81;108749;1253;71852;-90
2023/12/09 01:26:12;;;;;;;50.10;23.30;;;;;;;3.42;55.56;100737.69;108376;1253;69977;-90
2023/12/09 01:28:40;;;;;;;43.50;21.40;;;;;;;3.44;55.45;100738.02;108694;1256;70888;-89
2023/12/09 01:31:09;;;;;;;45.70;22.10;;;;;;;3.42;55.51;100743.06;108477;1253;61604;-91
2023/12/09 01:33:38;;;;;;;45.10;22.60;;;;;;;3.45;55.41;100745.16;108345;1253;60286;-89
2023/12/09 01:36:06;;;;;;;47.70;22.30;;;;;;;3.58;55.36;100747.43;108318;1258;73136;-89
2023/12/09 01:38:35;;;;;;;55.40;23.70;;;;;;;3.69;55.13;100748.15;108246;1253;70373;-89
2023/12/09 01:41:03;;;;;;;54.20;22.10;;;;;;;3.58;55.52;100747.09;108245;1253;72896;-90
2023/12/09 01:43:31;;;;;;;59.90;25.00;;;;;;;3.53;55.73;100746.56;108544;1253;59420;-86
2023/12/09 01:46:06;;;;;;;59.00;26.20;;;;;;;3.47;55.75;100747.23;108439;1252;59664;-89
2023/12/09 01:48:33;;;;;;;52.20;24.00;;;;;;;3.49;55.67;100748.11;108227;1258;73126;-90
2023/12/09 01:51:02;;;;;;;55.50;26.00;;;;;;;3.43;55.88;100749.30;108398;1253;69956;-90
2023/12/09 01:53:30;;;;;;;60.00;26.90;;;;;;;3.43;55.78;100749.48;108429;1257;71703;-91
2023/12/09 01:55:58;;;;;;;55.10;26.00;;;;;;;3.48;55.73;100746.89;108406;1253;63522;-92
2023/12/09 01:58:26;;;;;;;54.60;26.00;;;;;;;3.54;55.58;100746.91;108286;1253;59486;-90
2023/12/09 02:00:54;;;;;;;49.60;23.60;;;;;;;3.49;55.82;100741.52;108438;1252;71908;-90
2023/12/09 02:03:21;;;;;;;49.60;24.50;;;;;;;3.42;56.11;100744.45;108404;1253;69018;-90
2023/12/09 02:05:50;;;;;;;48.60;24.40;;;;;;;3.41;56.09;100739.77;108231;1253;72821;-88
2023/12/09 02:08:18;;;;;;;51.70;25.40;;;;;;;3.41;55.97;100743.23;108426;1253;60420;-90
2023/12/09 02:10:51;;;;;;;53.90;24.80;;;;;;;3.38;56.01;100744.62;108368;1253;59396;-90
2023/12/09 02:13:23;;;;;;;48.60;23.70;;;;;;;3.37;56.11;100745.84;108446;1253;73507;-90
2023/12/09 02:16:04;;;;;;;52.20;24.10;;;;;;;3.40;56.03;100746.70;108742;1253;69107;-91
2023/12/09 02:18:32;;;;;;;50.10;25.50;;;;;;;3.41;55.86;100748.09;108622;1253;72636;-91
2023/12/09 02:21:00;;;;;;;49.30;24.00;;;;;;;3.50;55.88;100745.52;108613;1253;60497;-90
2023/12/09 02:23:52;;;;;;;51.40;24.80;;;;;;;3.61;55.65;100744.14;108968;1253;59065;-89
2023/12/09 02:26:25;;;;;;;48.60;24.20;;;;;;;3.53;55.68;100745.70;109444;1253;72069;-89
2023/12/09 02:28:59;;;;;;;56.00;25.60;;;;;;;3.48;55.84;100747.06;109135;1253;68448;-88
2023/12/09 02:31:30;;;;;;;52.10;25.70;;;;;;;3.55;55.61;100742.73;109370;1253;71237;-90
2023/12/09 02:33:59;;;;;;;54.90;27.10;;;;;;;3.63;55.36;100741.71;109483;1253;59431;-90
2023/12/09 02:36:27;;;;;;;54.00;25.80;;;;;;;3.51;55.60;100738.75;109390;1260;58550;-88
2023/12/09 02:38:55;;;;;;;55.90;27.50;;;;;;;3.62;55.46;100740.84;109370;1253;71790;-91
2023/12/09 02:41:22;;;;;;;51.10;26.20;;;;;;;3.64;55.42;100742.73;108889;1253;69068;-90
2023/12/09 02:43:50;;;;;;;46.70;23.80;;;;;;;3.51;55.51;100740.65;108014;1253;71619;-89
2023/12/09 02:46:18;;;;;;;57.30;26.90;;;;;;;3.45;55.58;100743.77;107880;1256;60881;-88
2023/12/09 02:48:47;;;;;;;45.30;23.00;;;;;;;3.45;55.72;100743.08;108164;1253;59356;-90
2023/12/09 02:51:15;;;;;;;56.60;25.50;;;;;;;3.44;55.80;100740.83;108199;1253;75203;-90
2023/12/09 02:53:44;;;;;;;44.50;22.30;;;;;;;3.46;55.69;100738.91;108257;1253;70953;-88
2023/12/09 02:56:12;;;;;;;46.30;23.00;;;;;;;3.42;55.85;100737.16;108453;1253;71347;-89
2023/12/09 02:58:41;;;;;;;53.60;26.30;;;;;;;3.44;55.83;100737.52;108507;1253;60929;-90
2023/12/09 03:01:10;;;;;;;47.70;23.00;;;;;;;3.50;55.66;100742.20;108658;1253;59956;-88
2023/12/09 03:03:37;;;;;;;48.10;23.00;;;;;;;3.54;55.70;100742.73;108497;1253;71796;-90
2023/12/09 03:06:05;;;;;;;48.80;23.70;;;;;;;3.55;55.60;100748.13;109333;1253;68808;-90
2023/12/09 03:08:33;;;;;;;44.20;22.00;;;;;;;3.54;55.72;100746.73;108380;1253;71776;-92
2023/12/09 03:11:01;;;;;;;44.30;22.70;;;;;;;3.61;55.50;100746.39;108147;1253;60407;-89
2023/12/09 03:13:28;;;;;;;43.90;22.00;;;;;;;3.59;55.57;100747.43;108257;1253;59564;-89
2023/12/09 03:15:56;;;;;;;42.40;20.30;;;;;;;3.63;55.58;100747.27;108140;1253;73231;-88
2023/12/09 03:18:24;;;;;;;48.70;21.90;;;;;;;3.50;55.58;100745.16;108409;1253;71389;-88
2023/12/09 03:20:52;;;;;;;41.70;22.10;;;;;;;3.47;55.76;100750.70;109138;1253;72682;-88
2023/12/09 03:23:19;;;;;;;43.10;20.80;;;;;;;3.49;55.85;100751.92;109246;1254;60681;-87
2023/12/09 03:25:47;;;;;;;48.00;21.90;;;;;;;3.55;55.77;100755.24;109113;1253;59281;-89
2023/12/09 03:28:16;;;;;;;37.60;18.80;;;;;;;3.48;55.69;100760.61;108743;1253;71777;-87
2023/12/09 03:30:44;;;;;;;36.90;19.40;;;;;;;3.47;55.95;100758.01;108902;1253;69013;-89
2023/12/09 03:33:11;;;;;;;36.60;18.40;;;;;;;3.57;55.55;100759.75;108880;1258;71166;-88
2023/12/09 03:35:39;;;;;;;39.30;18.80;;;;;;;3.66;55.38;100758.91;108422;1253;61631;-89
2023/12/09 03:38:07;;;;;;;38.50;20.00;;;;;;;3.71;55.26;100760.82;108283;1253;59538;-91
2023/12/09 03:40:35;;;;;;;34.20;17.40;;;;;;;3.65;55.35;100760.46;108068;1254;71854;-90
2023/12/09 03:43:03;;;;;;;38.90;21.10;;;;;;;3.62;55.62;100759.07;108449;1253;70364;-86
2023/12/09 03:45:30;;;;;;;45.10;19.80;;;;;;;3.67;55.40;100761.69;108906;1253;71448;-88
2023/12/09 03:47:58;;;;;;;37.20;19.60;;;;;;;3.76;55.30;100757.86;108650;1254;64425;-88
2023/12/09 03:50:26;;;;;;;43.10;20.50;;;;;;;3.79;55.20;100762.39;108206;1253;60207;-89
2023/12/09 03:52:54;;;;;;;40.40;18.80;;;;;;;3.76;55.21;100763.25;108203;1253;73087;-89
2023/12/09 03:55:21;;;;;;;37.80;18.70;;;;;;;3.76;55.34;100763.07;108134;1253;70493;-89
2023/12/09 03:57:51;;;;;;;41.50;20.00;;;;;;;3.76;55.23;100763.60;108343;1253;73388;-89
2023/12/09 04:00:19;;;;;;;42.10;20.10;;;;;;;3.72;55.25;100762.20;108102;1256;61331;-90
2023/12/09 04:02:49;;;;;;;44.70;20.10;;;;;;;3.66;55.46;100760.80;108181;1253;59531;-89
2023/12/09 04:05:17;;;;;;;38.30;18.20;;;;;;;3.68;55.42;100760.98;108410;1253;71759;-89
2023/12/09 04:07:45;;;;;;;36.00;18.20;;;;;;;3.67;55.36;100760.29;108371;1253;69996;-90
2023/12/09 04:10:12;;;;;;;39.40;20.30;;;;;;;3.74;55.30;100762.21;108253;1257;72656;-90
2023/12/09 04:12:40;;;;;;;39.30;19.70;;;;;;;3.79;55.10;100761.17;108313;1252;61679;-89
2023/12/09 04:15:10;;;;;;;46.80;20.10;;;;;;;3.76;55.15;100756.66;108310;1253;60384;-88
2023/12/09 04:17:40;;;;;;;40.50;18.20;;;;;;;3.73;55.28;100754.39;108676;1253;76126;-89
2023/12/09 04:20:15;;;;;;;41.50;18.90;;;;;;;3.70;55.35;100752.48;109111;1258;68963;-89
2023/12/09 04:22:44;;;;;;;39.60;19.80;;;;;;;3.78;55.17;100750.58;108973;1254;71483;-90
2023/12/09 04:25:11;;;;;;;46.80;22.50;;;;;;;3.81;55.11;100750.59;108173;1253;60627;-89
2023/12/09 04:27:39;;;;;;;53.40;23.20;;;;;;;3.89;54.74;100752.15;107960;1254;60411;-89
2023/12/09 04:30:07;;;;;;;42.40;21.10;;;;;;;3.81;54.86;100754.41;108281;1254;72565;-90
2023/12/09 04:32:35;;;;;;;41.50;19.70;;;;;;;3.71;55.23;100758.21;108255;1254;68979;-88
2023/12/09 04:35:03;;;;;;;39.60;20.20;;;;;;;3.72;55.34;100759.27;108274;1254;71355;-88
2023/12/09 04:37:31;;;;;;;38.70;20.10;;;;;;;3.89;54.97;100759.96;108408;1255;61652;-88
2023/12/09 04:39:58;;;;;;;39.70;19.80;;;;;;;3.91;54.63;100762.40;108479;1254;60543;-90
2023/12/09 04:42:30;;;;;;;43.40;21.10;;;;;;;3.90;54.69;100759.27;108324;1254;72551;-89
2023/12/09 04:44:58;;;;;;;38.80;19.50;;;;;;;3.91;54.51;100755.61;108115;1254;68745;-89
2023/12/09 04:47:27;;;;;;;42.80;20.50;;;;;;;3.80;54.71;100753.36;108146;1254;72498;-88
2023/12/09 04:49:55;;;;;;;38.60;19.10;;;;;;;3.81;54.75;100751.80;108132;1254;61680;-90
2023/12/09 04:52:23;;;;;;;36.00;19.70;;;;;;;3.84;54.67;100753.02;108095;1259;59224;-90
2023/12/09 04:54:51;;;;;;;39.00;20.00;;;;;;;3.88;54.69;100756.84;108161;1255;73928;-90
2023/12/09 04:57:21;;;;;;;35.90;18.20;;;;;;;3.80;54.92;100756.66;108087;1256;69828;-89
2023/12/09 04:59:49;;;;;;;39.00;19.10;;;;;;;3.90;54.59;100762.41;108094;1258;74502;-91
2023/12/09 05:02:20;;;;;;;47.70;22.20;;;;;;;3.90;54.46;100764.31;108096;1258;60454;-88
2023/12/09 05:04:52;;;;;;;45.60;21.90;;;;;;;3.77;54.64;100764.98;107979;1257;60216;-91
2023/12/09 05:07:25;;;;;;;47.10;21.50;;;;;;;3.73;54.73;100766.72;108030;1256;72669;-88
2023/12/09 05:09:53;;;;;;;47.60;22.80;;;;;;;3.65;54.93;100767.59;108255;1254;70301;-89
2023/12/09 05:12:21;;;;;;;41.20;21.20;;;;;;;3.60;55.10;100766.19;108106;1254;72645;-90
2023/12/09 05:14:48;;;;;;;51.40;23.20;;;;;;;3.68;55.00;100771.23;108544;1260;60897;-91
2023/12/09 05:17:16;;;;;;;45.40;19.70;;;;;;;3.74;54.90;100781.31;109122;1254;58752;-89
2023/12/09 05:19:45;;;;;;;40.70;18.80;;;;;;;3.73;54.75;100783.73;109086;1254;72705;-90
2023/12/09 05:22:14;;;;;;;41.00;19.70;;;;;;;3.68;54.95;100790.49;109204;1259;68774;-89
2023/12/09 05:24:42;;;;;;;39.80;18.60;;;;;;;3.69;54.88;100792.24;109262;1254;71079;-88
2023/12/09 05:27:10;;;;;;;35.90;19.00;;;;;;;3.72;54.87;100789.48;109183;1254;60405;-88
2023/12/09 05:29:38;;;;;;;34.60;18.50;;;;;;;3.71;54.68;100786.52;108154;1254;60488;-87
2023/12/09 05:32:10;;;;;;;40.10;18.90;;;;;;;3.84;54.54;100788.61;108068;1254;73840;-89
2023/12/09 05:34:38;;;;;;;37.10;18.30;;;;;;;3.75;54.56;100789.48;108054;1259;69040;-90
2023/12/09 05:37:06;;;;;;;36.40;18.10;;;;;;;3.79;54.65;100789.84;108338;1254;72670;-89
2023/12/09 05:39:33;;;;;;;39.50;18.50;;;;;;;3.76;54.54;100788.27;108611;1255;60200;-88
2023/12/09 05:42:01;;;;;;;33.50;17.20;;;;;;;3.92;54.16;100793.66;108879;1254;60509;-86
2023/12/09 05:44:29;;;;;;;32.20;17.00;;;;;;;3.89;54.17;100791.92;109012;1254;72575;-88
2023/12/09 05:46:56;;;;;;;37.50;18.80;;;;;;;3.84;54.48;100793.48;109108;1254;68763;-87
2023/12/09 05:49:24;;;;;;;31.10;16.50;;;;;;;3.92;54.19;100794.18;109435;1254;71418;-88
2023/12/09 05:51:52;;;;;;;37.00;17.80;;;;;;;3.74;54.56;100793.98;109400;1254;60636;-90
2023/12/09 05:54:20;;;;;;;33.60;18.10;;;;;;;3.79;54.41;100794.52;109296;1254;58732;-88
2023/12/09 05:56:48;;;;;;;33.10;16.30;;;;;;;3.88;54.20;100790.89;109301;1260;73042;-88
2023/12/09 05:59:20;;;;;;;32.60;15.50;;;;;;;3.85;54.13;100792.09;109171;1254;69015;-91
2023/12/09 06:01:47;;;;;;;29.10;16.00;;;;;;;3.70;54.50;100792.77;108372;1255;70325;-88
2023/12/09 06:04:15;;;;;;;32.00;15.50;;;;;;;3.73;54.46;100795.72;108648;1254;60446;-88
2023/12/09 06:06:45;;;;;;;29.60;16.50;;;;;;;3.66;54.45;100796.94;108667;1254;60339;-88
2023/12/09 06:09:13;;;;;;;27.80;14.60;;;;;;;3.72;54.35;100792.95;108912;1253;72750;-88
2023/12/09 06:11:42;;;;;;;34.00;17.80;;;;;;;3.80;54.23;100791.92;108746;1254;68725;-88
2023/12/09 06:14:10;;;;;;;28.60;15.90;;;;;;;3.85;54.15;100793.66;108672;1254;70282;-87
2023/12/09 06:16:38;;;;;;;25.70;14.20;;;;;;;3.84;54.06;100794.20;108730;1254;60363;-89
2023/12/09 06:19:06;;;;;;;30.60;16.50;;;;;;;3.86;54.09;100792.79;108321;1260;60325;-91
2023/12/09 06:21:34;;;;;;;32.90;17.10;;;;;;;3.99;53.95;100793.50;108236;1254;72569;-89
2023/12/09 06:24:03;;;;;;;39.30;19.20;;;;;;;4.04;53.87;100793.16;108311;1254;70450;-89
2023/12/09 06:26:32;;;;;;;50.10;24.50;;;;;;;3.94;54.17;100790.89;108236;1256;72206;-91
2023/12/09 06:29:01;;;;;;;38.10;19.10;;;;;;;3.93;54.20;100792.80;108265;1260;60781;-89
2023/12/09 06:31:28;;;;;;;43.00;20.50;;;;;;;3.92;54.17;100790.02;108318;1254;60359;-90
2023/12/09 06:33:58;;;;;;;53.90;22.80;;;;;;;4.03;53.85;100787.23;108325;1255;73866;-92
2023/12/09 06:36:26;;;;;;;37.90;18.80;;;;;;;4.09;53.69;100787.42;108297;1254;70306;-89
2023/12/09 06:38:54;;;;;;;45.50;22.10;;;;;;;3.99;54.24;100781.86;108087;1255;71527;-89
2023/12/09 06:41:21;;;;;;;45.70;20.70;;;;;;;3.98;54.09;100778.55;108184;1257;60465;-89
2023/12/09 06:43:50;;;;;;;42.30;19.20;;;;;;;4.04;53.91;100780.30;108116;1255;60348;-89
2023/12/09 06:46:18;;;;;;;41.10;19.00;;;;;;;4.21;53.41;100780.98;108124;1254;73870;-90
2023/12/09 06:48:45;;;;;;;35.80;19.00;;;;;;;4.35;52.97;100782.88;108036;1254;70878;-90
2023/12/09 06:51:15;;;;;;;44.50;21.40;;;;;;;4.30;53.36;100784.11;108160;1260;71371;-90
2023/12/09 06:53:43;;;;;;;47.60;18.60;;;;;;;4.10;53.74;100787.25;108158;1257;61657;-90
2023/12/09 06:56:22;;;;;;;44.30;19.10;;;;;;;4.07;53.64;100789.69;108108;1254;60332;-89
2023/12/09 06:58:51;;;;;;;42.40;21.70;;;;;;;4.02;53.81;100794.89;108010;1254;72661;-90
2023/12/09 07:01:22;;;;;;;34.70;19.10;;;;;;;4.23;53.30;100799.76;108096;1254;69515;-90
2023/12/09 07:03:50;;;;;;;43.00;19.30;;;;;;;4.05;53.69;100794.20;108004;1257;73628;-89
2023/12/09 07:06:22;;;;;;;39.20;20.30;;;;;;;4.09;53.40;100792.63;108005;1254;60403;-88
2023/12/09 07:08:50;;;;;;;40.40;19.70;;;;;;;4.21;53.46;100792.45;108055;1254;60576;-90
2023/12/09 07:11:19;;;;;;;38.20;19.50;;;;;;;4.30;53.36;100791.23;108015;1254;74749;-89
2023/12/09 07:13:47;;;;;;;42.10;20.50;;;;;;;4.42;53.16;100791.39;108085;1260;68788;-91
2023/12/09 07:16:14;;;;;;;38.60;19.80;;;;;;;4.49;52.94;100792.08;107944;1260;72948;-90
2023/12/09 07:18:46;;;;;;;37.50;18.60;;;;;;;4.55;52.66;100798.52;108126;1258;62118;-90
2023/12/09 07:21:16;;;;;;;40.80;19.10;;;;;;;4.65;52.56;100796.56;108037;1254;60311;-91
2023/12/09 07:23:44;;;;;;;39.20;19.60;;;;;;;4.74;52.35;100794.99;108129;1254;73163;-90
2023/12/09 07:26:13;;;;;;;48.30;20.50;;;;;;;4.88;52.14;100792.52;108093;1254;69400;-89
2023/12/09 07:28:40;;;;;;;45.50;20.40;;;;;;;4.78;52.13;100790.45;108050;1254;71378;-88
2023/12/09 07:31:08;;;;;;;41.00;20.50;;;;;;;4.78;52.49;100796.20;108121;1254;60386;-90
2023/12/09 07:33:38;;;;;;;39.30;20.50;;;;;;;4.81;52.59;100795.83;108139;1259;60540;-90
2023/12/09 07:36:09;;;;;;;39.60;20.00;;;;;;;5.01;52.21;100800.83;108211;1254;73102;-90
2023/12/09 07:38:40;;;;;;;41.80;20.00;;;;;;;5.14;51.78;100803.04;108172;1254;70010;-90
2023/12/09 07:41:09;;;;;;;43.40;21.20;;;;;;;5.25;51.24;100805.95;108335;1254;71831;-90
2023/12/09 07:43:39;;;;;;;38.80;19.00;;;;;;;5.21;50.99;100807.54;107956;1254;59689;-90
2023/12/09 07:46:07;;;;;;;41.30;20.30;;;;;;;5.21;51.09;100814.33;107977;1254;59004;-90
2023/12/09 07:48:37;;;;;;;41.50;20.40;;;;;;;5.25;50.96;100817.95;108007;1254;72821;-89
2023/12/09 07:51:05;;;;;;;45.20;22.60;;;;;;;5.35;50.94;100821.41;108069;1254;70404;-89
2023/12/09 07:53:33;;;;;;;46.30;23.70;;;;;;;5.29;50.98;100825.96;108078;1254;71379;-88
2023/12/09 07:56:00;;;;;;;42.40;23.10;;;;;;;5.31;50.81;100823.34;108122;1254;60394;-90
2023/12/09 07:58:28;;;;;;;55.60;26.80;;;;;;;5.34;50.83;100824.55;108537;1254;60354;-90
2023/12/09 08:00:59;;;;;;;50.20;24.70;;;;;;;5.36;50.75;100828.02;108590;1254;73844;-91
2023/12/09 08:03:30;;;;;;;45.80;24.00;;;;;;;5.38;50.79;100824.35;108464;1254;69316;-89
2023/12/09 08:05:58;;;;;;;47.00;23.70;;;;;;;5.46;50.70;100822.23;108372;1254;70761;-90
2023/12/09 08:08:27;;;;;;;37.10;20.00;;;;;;;5.54;50.51;100822.54;108046;1254;61697;-90
2023/12/09 08:10:58;;;;;;;44.10;21.50;;;;;;;5.62;50.35;100814.65;108513;1254;60574;-90
2023/12/09 08:13:39;;;;;;;47.40;25.00;;;;;;;5.69;50.22;100812.35;109319;1254;73352;-87
2023/12/09 08:16:53;;;;;;;33.40;18.30;;;;;;;5.70;49.73;100807.27;109205;1254;68991;-90
2023/12/09 08:19:23;;;;;;;37.00;19.80;;;;;;;5.56;49.60;100809.11;108724;1254;71459;-90
2023/12/09 08:21:52;;;;;;;44.90;23.40;;;;;;;5.52;49.65;100806.34;108486;1256;61746;-90
2023/12/09 08:24:19;;;;;;;174.60;81.10;;;;;;;5.42;49.82;100803.09;108645;1254;59149;-90
2023/12/09 08:26:47;;;;;;;117.40;47.60;;;;;;;5.50;49.77;100801.65;108489;1254;73905;-88
2023/12/09 08:29:17;;;;;;;730.30;345.10;;;;;;;5.53;49.85;100797.64;108031;1254;70906;-90
2023/12/09 08:31:48;;;;;;;618.10;248.70;;;;;;;5.59;49.49;100794.13;108296;1253;70736;-91
2023/12/09 08:34:18;;;;;;;816.90;231.20;;;;;;;5.59;49.44;100798.64;108270;1254;59561;-90
2023/12/09 08:36:46;;;;;;;216.90;57.60;;;;;;;5.64;49.49;100801.39;108233;1254;59168;-90
2023/12/09 08:39:17;;;;;;;106.20;35.10;;;;;;;5.71;49.37;100798.76;108176;1254;73847;-90
2023/12/09 08:41:47;;;;;;;52.40;22.50;;;;;;;5.74;49.07;100793.84;108275;1254;69890;-89
2023/12/09 08:44:15;;;;;;;41.70;20.80;;;;;;;5.76;48.93;100792.44;108202;1254;71306;-90
2023/12/09 08:46:44;;;;;;;137.20;36.50;;;;;;;5.85;49.24;100790.81;108444;1254;60315;-92
2023/12/09 08:49:12;;;;;;;141.00;46.80;;;;;;;5.98;48.75;100790.03;109061;1254;59189;-91
2023/12/09 08:51:45;;;;;;;603.20;174.80;;;;;;;6.07;48.65;100784.41;109017;1254;72865;-89
2023/12/09 08:54:14;;;;;;;186.60;53.70;;;;;;;6.02;48.79;100782.16;108546;1254;69058;-89
2023/12/09 08:56:43;;;;;;;156.60;38.40;;;;;;;5.98;48.79;100783.08;108066;1263;71448;-89
2023/12/09 08:59:13;;;;;;;66.80;26.30;;;;;;;5.92;48.48;100782.06;108199;1254;61931;-90
2023/12/09 09:01:42;;;;;;;72.20;26.40;;;;;;;5.75;48.79;100784.42;108391;1254;60314;-90
2023/12/09 09:04:12;;;;;;;87.20;28.10;;;;;;;5.84;48.57;100780.02;108634;1254;72836;-89
2023/12/09 09:06:41;;;;;;;57.00;23.80;;;;;;;5.93;48.27;100774.22;109317;1254;69018;-91
2023/12/09 09:09:11;;;;;;;66.10;26.00;;;;;;;5.86;48.39;100773.89;109171;1254;71483;-90
2023/12/09 09:11:41;;;;;;;84.20;28.10;;;;;;;5.69;48.73;100773.31;109249;1254;60105;-90
2023/12/09 09:14:08;;;;;;;72.60;25.00;;;;;;;5.69;48.97;100769.30;109356;1254;58740;-89
2023/12/09 09:16:37;;;;;;;142.50;43.50;;;;;;;5.65;48.79;100765.70;109413;1254;72609;-90
2023/12/09 09:19:06;;;;;;;77.90;31.50;;;;;;;5.63;48.90;100764.47;109225;1254;69028;-90
2023/12/09 09:21:34;;;;;;;181.90;48.50;;;;;;;5.72;48.82;100767.20;109340;1254;71627;-90
2023/12/09 09:24:02;;;;;;;55.30;21.60;;;;;;;5.80;48.29;100766.10;109361;1253;59846;-92
2023/12/09 09:26:30;;;;;;;59.90;21.20;;;;;;;5.85;47.99;100763.96;108508;1254;59286;-91
2023/12/09 09:28:57;;;;;;;34.20;16.20;;;;;;;5.93;47.78;100759.92;108890;1254;71619;-90
2023/12/09 09:31:26;;;;;;;37.60;17.00;;;;;;;6.03;47.53;100753.40;109244;1254;70576;-90
2023/12/09 09:33:54;;;;;;;37.60;17.90;;;;;;;6.04;47.47;100750.95;109218;1254;71545;-89
2023/12/09 09:36:24;;;;;;;39.40;19.40;;;;;;;6.06;47.56;100749.71;109314;1254;59623;-90
2023/12/09 09:38:56;;;;;;;28.20;14.10;;;;;;;6.01;47.46;100745.58;109405;1254;58744;-90
2023/12/09 09:41:32;;;;;;;24.30;14.30;;;;;;;6.02;46.79;100742.77;108766;1254;73043;-91
2023/12/09 09:44:11;;;;;;;23.30;12.50;;;;;;;5.99;46.42;100739.84;108216;1254;70809;-90
2023/12/09 09:46:57;;;;;;;58.80;18.40;;;;;;;6.03;46.61;100742.42;108399;1255;70775;-89
2023/12/09 09:49:29;;;;;;;34.60;14.80;;;;;;;6.05;46.68;100737.86;108031;1254;61219;-90
2023/12/09 09:51:57;;;;;;;46.50;17.90;;;;;;;6.02;46.41;100734.58;108039;1254;60429;-90
2023/12/09 09:54:35;;;;;;;258.60;63.70;;;;;;;5.99;46.31;100729.91;108131;1254;73865;-92
2023/12/09 09:57:07;;;;;;;23.20;11.00;;;;;;;5.84;46.21;100737.50;108216;1254;69660;-89
2023/12/09 09:59:39;;;;;;;32.20;13.30;;;;;;;5.79;45.78;100736.13;108132;1254;73206;-91
2023/12/09 10:02:08;;;;;;;37.20;14.90;;;;;;;5.88;46.10;100738.86;108043;1256;61325;-88
2023/12/09 10:04:36;;;;;;;16.90;9.50;;;;;;;5.82;45.98;100736.11;107943;1254;60459;-90
2023/12/09 10:07:04;;;;;;;25.80;12.20;;;;;;;5.89;45.85;100731.88;108165;1254;72969;-90
2023/12/09 10:09:33;;;;;;;25.50;11.50;;;;;;;5.90;45.90;100736.23;108119;1254;69286;-87
2023/12/09 10:12:01;;;;;;;23.40;11.00;;;;;;;5.92;45.65;100733.06;108205;1254;72745;-88
2023/12/09 10:14:31;;;;;;;14.70;9.00;;;;;;;5.84;45.61;100736.10;108371;1254;60958;-88
2023/12/09 10:16:59;;;;;;;15.80;8.60;;;;;;;5.72;45.56;100740.20;108017;1254;60041;-89
2023/12/09 10:19:43;;;;;;;19.50;10.10;;;;;;;5.74;45.57;100738.27;108378;1254;72586;-90
2023/12/09 10:22:11;;;;;;;18.10;9.60;;;;;;;5.82;45.47;100738.90;108682;1254;69047;-89
2023/12/09 10:24:39;;;;;;;17.30;10.50;;;;;;;5.77;45.73;100732.48;108482;1254;72686;-90
2023/12/09 10:27:22;;;;;;;18.80;10.60;;;;;;;5.86;45.56;100728.41;108572;1254;63090;-90
2023/12/09 10:29:56;;;;;;;28.20;14.80;;;;;;;5.88;45.78;100718.81;108419;1254;61937;-90
2023/12/09 10:32:37;;;;;;;;;;;;;;;5.88;45.75;100709.92;108527;1254;72631;-90
2023/12/09 10:35:09;;;;;;;24.90;12.00;;;;;;;5.89;45.60;100698.92;108677;1254;69153;-88
2023/12/09 10:37:37;;;;;;;20.80;11.40;;;;;;;5.91;45.40;100696.65;108740;1254;71873;-89
2023/12/09 10:40:06;;;;;;;21.40;11.50;;;;;;;5.98;45.46;100692.77;108851;1254;60352;-89
2023/12/09 10:42:38;;;;;;;17.80;10.20;;;;;;;6.02;45.69;100693.97;108774;1254;59228;-90
2023/12/09 10:45:07;;;;;;;18.60;10.00;;;;;;;6.05;45.02;100688.73;108653;1254;74686;-88
2023/12/09 10:47:43;;;;;;;20.00;10.60;;;;;;;6.08;44.89;100686.76;108775;1254;70730;-90
2023/12/09 10:50:12;;;;;;;18.10;10.10;;;;;;;6.11;44.67;100683.25;108472;1254;71630;-86
2023/12/09 10:52:40;;;;;;;16.60;9.30;;;;;;;6.11;44.61;100686.21;108510;1254;59673;-87
2023/12/09 10:55:08;;;;;;;17.50;10.90;;;;;;;6.06;44.41;100684.34;108210;1254;60209;-91
2023/12/09 10:57:35;;;;;;;15.20;9.80;;;;;;;6.15;44.37;100679.38;108129;1254;72607;-90
2023/12/09 11:00:10;;;;;;;16.40;9.40;;;;;;;6.23;44.46;100677.55;108339;1254;68864;-89
2023/12/09 11:02:42;;;;;;;16.80;9.50;;;;;;;6.29;44.27;100676.09;108671;1254;71079;-89
2023/12/09 11:05:10;;;;;;;;;;;;;;;6.32;44.48;100675.53;108566;1254;60900;-86
2023/12/09 11:07:38;;;;;;;21.60;11.80;;;;;;;6.31;44.50;100674.66;108463;1254;60468;-88
2023/12/09 11:10:09;;;;;;;34.70;16.40;;;;;;;6.30;44.59;100672.23;108296;1254;72169;-91
2023/12/09 11:12:37;;;;;;;28.20;14.50;;;;;;;6.31;44.69;100676.08;108147;1254;69656;-89
2023/12/09 11:15:12;;;;;;;19.50;11.80;;;;;;;6.28;45.13;100672.77;108113;1254;71381;-90
2023/12/09 11:17:41;;;;;;;18.70;11.60;;;;;;;6.45;45.21;100670.86;108103;1254;60907;-89
2023/12/09 11:20:15;;;;;;;19.30;10.50;;;;;;;6.52;45.39;100666.77;108307;1254;60536;-87